Time;durP1;ratioP1;P1;durP2;ratioP2;P2;SDS_P1;SDS_P2;PMS_P1;PMS_P2;Temp;Humidity;BMP_temperature;BMP_pressure;BME280_temperature;BME280_humidity;BME280_pressure;Samples;Min_cycle;Max_cycle;Signal;HPM_P1;HPM_P2
2022/11/18 07:56:52;;;;;;;26.70;13.68;;;;;;;-3.18;100.00;98461.57;1801356;78;26359;-78
2022/11/18 07:59:19;;;;;;;27.48;14.30;;;;;;;-3.21;100.00;98465.57;1760530;80;21509;-79
2022/11/18 08:01:45;;;;;;;28.17;13.65;;;;;;;-3.10;100.00;98463.80;1767791;80;21540;-75
2022/11/18 08:04:12;;;;;;;27.20;13.03;;;;;;;-3.09;100.00;98464.08;1730678;80;20891;-77
2022/11/18 08:06:40;;;;;;;20.77;12.00;;;;;;;-3.04;100.00;98471.66;1701177;82;20963;-76
2022/11/18 08:09:07;;;;;;;26.05;13.95;;;;;;;-3.05;100.00;98473.25;1685613;83;20943;-76
2022/11/18 08:11:34;;;;;;;24.90;13.18;;;;;;;-3.05;100.00;98479.96;1694760;83;21443;-77
2022/11/18 08:14:01;;;;;;;21.45;12.30;;;;;;;-3.04;100.00;98485.08;1680958;83;21153;-78
2022/11/18 08:16:30;;;;;;;25.62;12.13;;;;;;;-2.93;100.00;98483.31;1670800;84;20936;-77
2022/11/18 08:18:58;;;;;;;25.52;12.35;;;;;;;-2.87;100.00;98479.58;1668604;84;20913;-78
2022/11/18 08:21:26;;;;;;;24.05;12.45;;;;;;;-2.85;100.00;98484.16;1681136;85;20953;-76
2022/11/18 08:23:55;;;;;;;23.15;12.03;;;;;;;-2.81;100.00;98487.95;1672926;84;20908;-75
2022/11/18 08:26:23;;;;;;;22.75;11.60;;;;;;;-2.78;100.00;98492.02;1686366;83;21218;-74
2022/11/18 08:28:50;;;;;;;21.62;11.40;;;;;;;-2.75;100.00;98497.69;1695844;83;21058;-76
2022/11/18 08:31:24;;;;;;;23.07;12.47;;;;;;;-2.78;100.00;98502.22;1708632;83;20959;-78
2022/11/18 08:34:00;;;;;;;28.95;13.13;;;;;;;-2.79;100.00;98499.26;1691343;83;20982;-73
2022/11/18 08:36:29;;;;;;;26.90;13.30;;;;;;;-2.77;100.00;98498.47;1702527;83;20940;-75
2022/11/18 08:38:59;;;;;;;38.92;15.43;;;;;;;-2.75;100.00;98499.03;1699390;83;21586;-81
2022/11/18 08:41:42;;;;;;;25.40;13.70;;;;;;;-2.75;100.00;98501.72;1681458;83;21189;-83
2022/11/18 08:44:12;;;;;;;23.80;13.05;;;;;;;-2.70;100.00;98497.73;1701554;83;20939;-81
2022/11/18 08:46:38;;;;;;;24.70;13.90;;;;;;;-2.61;100.00;98500.77;1697116;83;20983;-73
2022/11/18 08:49:05;;;;;;;24.25;13.65;;;;;;;-2.62;100.00;98500.48;1722418;82;21008;-73
2022/11/18 08:51:32;;;;;;;28.62;14.13;;;;;;;-2.62;100.00;98506.39;1717085;82;21531;-73
2022/11/18 08:54:00;;;;;;;24.18;13.50;;;;;;;-2.62;100.00;98496.98;1732954;81;21596;-71
2022/11/18 08:56:27;;;;;;;40.90;20.32;;;;;;;-2.62;100.00;98492.96;1721035;82;21089;-75
2022/11/18 08:58:54;;;;;;;221.40;112.65;;;;;;;-2.54;100.00;98501.36;1717321;82;21608;-79
2022/11/18 09:01:21;;;;;;;494.02;161.03;;;;;;;-2.51;100.00;98504.88;1708555;82;20979;-88
2022/11/18 09:03:48;;;;;;;219.82;82.78;;;;;;;-2.51;100.00;98506.76;1717732;82;21113;-80
2022/11/18 09:06:20;;;;;;;78.02;43.68;;;;;;;-2.50;100.00;98507.04;1709392;82;20902;-81
2022/11/18 09:08:47;;;;;;;219.00;122.62;;;;;;;-2.47;100.00;98511.90;1749476;79;20916;-78
2022/11/18 09:11:16;;;;;;;70.28;44.27;;;;;;;-2.40;100.00;98512.50;1789220;79;21050;-85
2022/11/18 09:13:44;;;;;;;84.47;46.45;;;;;;;-2.36;100.00;98514.95;1696106;82;20857;-81
2022/11/18 09:16:11;;;;;;;173.87;92.27;;;;;;;-2.35;100.00;98520.06;1679946;84;21114;-84
2022/11/18 09:18:39;;;;;;;78.47;36.05;;;;;;;-2.32;100.00;98506.65;1766940;80;21010;-72
2022/11/18 09:21:07;;;;;;;118.77;51.88;;;;;;;-2.32;100.00;98518.75;1753023;80;20923;-76
2022/11/18 09:23:36;;;;;;;72.75;34.50;;;;;;;-2.34;100.00;98511.47;1745795;81;20859;-73
2022/11/18 09:26:09;;;;;;;111.57;49.25;;;;;;;-2.37;100.00;98510.64;1773261;79;20932;-73
2022/11/18 09:28:35;;;;;;;65.17;30.62;;;;;;;-2.35;100.00;98511.20;1762545;80;21132;-78
2022/11/18 09:31:07;;;;;;;33.45;16.90;;;;;;;-2.25;100.00;98507.21;1767417;80;21553;-81
2022/11/18 09:33:36;;;;;;;27.65;15.05;;;;;;;-2.21;100.00;98506.97;1750535;80;20932;-73
2022/11/18 09:36:04;;;;;;;27.25;12.35;;;;;;;-2.17;100.00;98505.92;1748233;81;21038;-72
2022/11/18 09:38:31;;;;;;;25.17;13.05;;;;;;;-2.12;100.00;98514.02;1761895;80;21015;-72
2022/11/18 09:41:22;;;;;;;26.33;13.93;;;;;;;-2.10;100.00;98506.51;1730457;81;21132;-77
2022/11/18 09:44:20;;;;;;;27.48;13.95;;;;;;;-2.10;100.00;98504.63;1743252;80;20936;-74
2022/11/18 09:47:21;;;;;;;25.32;14.07;;;;;;;-2.05;100.00;98494.44;1748063;81;20968;-75
2022/11/18 09:49:48;;;;;;;24.77;13.00;;;;;;;-1.98;100.00;98491.53;1759625;80;20947;-89
2022/11/18 09:52:28;;;;;;;26.33;13.45;;;;;;;-1.88;100.00;98482.17;1765070;80;20932;-78
2022/11/18 09:54:54;;;;;;;22.65;13.00;;;;;;;-1.88;100.00;98493.74;1765515;80;21144;-77
2022/11/18 09:57:26;;;;;;;28.15;13.78;;;;;;;-1.91;100.00;98500.17;1780351;80;21592;-79
2022/11/18 09:59:53;;;;;;;24.47;14.15;;;;;;;-1.95;100.00;98499.89;1760731;80;20889;-74
2022/11/18 10:02:44;;;;;;;27.30;13.40;;;;;;;-1.94;100.00;98495.31;1765521;80;20968;-80
2022/11/18 10:05:22;;;;;;;23.90;13.90;;;;;;;-1.96;100.00;98488.04;1747557;81;21589;-75
2022/11/18 10:08:21;;;;;;;24.27;12.25;;;;;;;-1.94;100.00;98487.25;1718163;82;21190;-80
2022/11/18 10:11:01;;;;;;;26.23;13.05;;;;;;;-1.94;100.00;98481.87;1733787;81;20952;-82
2022/11/18 10:13:55;;;;;;;22.37;13.48;;;;;;;-2.04;100.00;98483.42;1751639;80;21496;-81
2022/11/18 10:17:03;;;;;;;24.23;12.13;;;;;;;-2.07;100.00;98484.48;1754029;81;20950;-82
2022/11/18 10:19:43;;;;;;;28.07;14.30;;;;;;;-2.00;100.00;98479.69;1758797;80;20959;-86
2022/11/18 10:22:27;;;;;;;28.40;13.58;;;;;;;-1.96;100.00;98464.64;1761472;80;21169;-75
2022/11/18 10:24:55;;;;;;;24.35;13.95;;;;;;;-1.92;100.00;98473.00;1751324;80;21499;-76
2022/11/18 10:27:26;;;;;;;31.62;17.87;;;;;;;-1.90;100.00;98464.95;1750418;81;21502;-77
2022/11/18 10:29:56;;;;;;;23.02;12.98;;;;;;;-1.86;100.00;98451.78;1740158;81;20903;-79
2022/11/18 10:32:23;;;;;;;22.32;12.23;;;;;;;-1.82;100.00;98446.97;1742761;80;21020;-79
2022/11/18 10:34:56;;;;;;;22.70;12.78;;;;;;;-1.86;100.00;98447.22;1740793;81;21579;-75
2022/11/18 10:37:31;;;;;;;26.37;14.93;;;;;;;-1.92;100.00;98460.90;1728544;81;20963;-75
2022/11/18 10:40:05;;;;;;;31.70;16.62;;;;;;;-1.93;100.00;98461.97;1754873;80;20905;-78
2022/11/18 10:42:41;;;;;;;26.42;13.70;;;;;;;-1.92;100.00;98450.95;1739438;81;21022;-81
2022/11/18 10:45:25;;;;;;;25.95;14.90;;;;;;;-1.91;100.00;98439.66;1657812;84;21170;-74
2022/11/18 10:48:17;;;;;;;23.20;13.00;;;;;;;-1.91;100.00;98442.34;1690565;83;21967;-74
2022/11/18 10:50:49;;;;;;;26.45;13.15;;;;;;;-1.87;100.00;98450.17;1716462;82;20884;-74
2022/11/18 10:53:36;;;;;;;24.23;13.43;;;;;;;-1.83;100.00;98451.27;1693692;83;20923;-75
2022/11/18 10:56:08;;;;;;;25.57;14.25;;;;;;;-1.85;100.00;98458.78;1756736;80;20963;-74
2022/11/18 10:58:38;;;;;;;;;;;;;;;-1.84;100.00;98457.18;1781055;80;20949;-75
2022/11/18 11:01:21;;;;;;;28.52;13.53;;;;;;;-1.87;100.00;98452.86;1761950;80;21083;-75
2022/11/18 11:04:18;;;;;;;24.35;13.65;;;;;;;-1.87;100.00;98455.55;1745145;81;21011;-76
2022/11/18 11:06:44;;;;;;;23.85;13.40;;;;;;;-1.84;100.00;98459.06;1750224;81;20883;-76
2022/11/18 11:09:30;;;;;;;24.57;14.07;;;;;;;-1.77;100.00;98458.29;1762079;81;20908;-76
2022/11/18 11:12:13;;;;;;;24.25;14.00;;;;;;;-1.70;100.00;98459.64;1756962;80;20974;-75
2022/11/18 11:14:56;;;;;;;24.43;14.55;;;;;;;-1.66;100.00;98469.34;1753933;81;21654;-74
2022/11/18 11:17:39;;;;;;;25.32;14.83;;;;;;;-1.62;100.00;98468.28;1757439;81;21491;-72
2022/11/18 11:20:22;;;;;;;29.63;14.70;;;;;;;-1.67;100.00;98478.48;1710010;83;20885;-71
2022/11/18 11:22:50;;;;;;;25.50;13.72;;;;;;;-1.71;100.00;98487.62;1673373;83;21006;-73
2022/11/18 11:25:25;;;;;;;29.02;15.45;;;;;;;-1.72;100.00;98502.68;1669232;85;21030;-72
2022/11/18 11:28:19;;;;;;;31.62;16.25;;;;;;;-1.74;100.00;98515.08;1720760;82;22149;-71
2022/11/18 11:31:10;;;;;;;27.80;15.55;;;;;;;-1.82;100.00;98513.41;1722570;82;20928;-75
2022/11/18 11:33:50;;;;;;;24.27;14.20;;;;;;;-1.87;100.00;98518.23;1723098;82;20959;-75
2022/11/18 11:36:34;;;;;;;26.25;14.98;;;;;;;-1.87;100.00;98525.49;1719274;82;21510;-73
2022/11/18 11:39:31;;;;;;;27.65;14.07;;;;;;;-1.83;100.00;98525.25;1742498;81;21059;-74
2022/11/18 11:42:18;;;;;;;24.92;13.95;;;;;;;-1.83;100.00;98526.59;1719489;82;21176;-77
2022/11/18 11:45:06;;;;;;;25.27;14.25;;;;;;;-1.81;100.00;98543.28;1736070;80;20956;-80
2022/11/18 11:48:12;;;;;;;23.38;14.53;;;;;;;-1.80;100.00;98536.30;1760706;80;21419;-82
2022/11/18 11:51:02;;;;;;;29.37;14.58;;;;;;;-1.80;100.00;98532.80;1749578;81;21011;-83
2022/11/18 11:53:46;;;;;;;27.80;15.13;;;;;;;-1.82;100.00;98526.86;1752007;81;21015;-82
2022/11/18 11:56:43;;;;;;;27.55;14.90;;;;;;;-1.86;100.00;98526.58;1754236;81;21130;-85
2022/11/18 11:59:44;;;;;;;27.45;15.58;;;;;;;-1.94;100.00;98532.97;1755188;80;21410;-81
2022/11/18 12:02:56;;;;;;;23.52;13.85;;;;;;;-2.00;100.00;98539.66;1750255;80;21012;-85
2022/11/18 12:05:39;;;;;;;29.42;15.28;;;;;;;-2.06;100.00;98541.23;1775731;80;21482;-78
2022/11/18 12:08:18;;;;;;;28.35;13.45;;;;;;;-2.09;100.00;98531.80;1761306;80;20867;-76
2022/11/18 12:11:01;;;;;;;26.50;15.15;;;;;;;-2.05;100.00;98515.42;1758450;80;21315;-76
2022/11/18 12:13:43;;;;;;;26.45;14.40;;;;;;;-2.03;100.00;98516.51;1750776;80;21571;-77
2022/11/18 12:16:31;;;;;;;28.67;15.08;;;;;;;-2.05;100.00;98534.78;1764070;80;20888;-75
2022/11/18 12:19:11;;;;;;;25.48;13.98;;;;;;;-2.11;100.00;98533.94;1735511;81;20979;-76
2022/11/18 12:21:50;;;;;;;27.90;14.53;;;;;;;-2.15;100.00;98518.57;1735726;81;21007;-76
2022/11/18 12:24:35;;;;;;;29.20;14.93;;;;;;;-2.16;100.00;98524.48;1739740;81;21258;-76
2022/11/18 12:27:27;;;;;;;31.45;14.78;;;;;;;-2.16;100.00;98539.80;1743864;81;20991;-76
2022/11/18 12:30:00;;;;;;;25.03;14.07;;;;;;;-2.17;100.00;98543.56;1726042;81;20908;-75
2022/11/18 12:32:41;;;;;;;28.60;14.28;;;;;;;-2.20;100.00;98547.58;1731633;81;21750;-78
2022/11/18 12:35:29;;;;;;;23.02;13.43;;;;;;;-2.19;100.00;98545.16;1730683;81;21385;-77
2022/11/18 12:37:58;;;;;;;34.85;15.20;;;;;;;-2.19;100.00;98551.89;1701783;82;21886;-74
2022/11/18 12:40:44;;;;;;;27.95;14.45;;;;;;;-2.18;100.00;98548.13;1688501;83;20933;-77
2022/11/18 12:43:48;;;;;;;26.05;13.65;;;;;;;-2.12;100.00;98559.20;1686724;83;20908;-77
2022/11/18 12:46:38;;;;;;;28.40;14.75;;;;;;;-2.10;100.00;98561.64;1701529;83;20971;-78
2022/11/18 12:49:26;;;;;;;25.72;14.23;;;;;;;-2.12;100.00;98552.48;1698181;83;21499;-77
2022/11/18 12:51:58;;;;;;;25.30;13.48;;;;;;;-2.11;100.00;98550.07;1684098;84;21171;-82
2022/11/18 12:54:37;;;;;;;26.40;13.90;;;;;;;-2.11;100.00;98547.91;1663717;84;21085;-76
2022/11/18 12:57:25;;;;;;;22.82;12.33;;;;;;;-2.10;100.00;98549.00;1656533;84;21156;-77
2022/11/18 12:59:52;;;;;;;23.62;12.13;;;;;;;-2.12;100.00;98552.48;1703502;82;21071;-78
2022/11/18 13:02:29;;;;;;;22.62;13.45;;;;;;;-2.15;100.00;98546.27;1728050;81;21035;-73
2022/11/18 13:05:13;;;;;;;23.87;13.22;;;;;;;-2.18;100.00;98540.06;1762402;80;21800;-76
2022/11/18 13:08:12;;;;;;;24.77;13.75;;;;;;;-2.19;100.00;98529.03;1745608;81;20941;-79
2022/11/18 13:10:49;;;;;;;28.15;15.25;;;;;;;-2.22;100.00;98516.64;1750619;80;21023;-78
2022/11/18 13:13:31;;;;;;;35.50;17.52;;;;;;;-2.23;100.00;98531.15;1745333;80;21450;-80
2022/11/18 13:18:53;;;;;;;33.30;17.37;;;;;;;-2.19;100.00;98533.06;1746287;80;21115;-79
2022/11/18 13:24:11;;;;;;;27.52;15.03;;;;;;;-2.15;100.00;98536.05;1738112;80;21470;-78
2022/11/18 13:26:40;;;;;;;27.85;16.07;;;;;;;-2.17;100.00;98532.28;1743010;80;20905;-77
2022/11/18 13:29:41;;;;;;;26.80;13.53;;;;;;;-2.20;100.00;98539.52;1741127;80;21467;-78
2022/11/18 13:32:26;;;;;;;26.07;14.68;;;;;;;-2.23;100.00;98525.23;1739033;80;21244;-78
2022/11/18 13:35:17;;;;;;;29.00;13.93;;;;;;;-2.26;100.00;98523.06;1714522;81;21065;-78
2022/11/18 13:37:59;;;;;;;29.10;13.60;;;;;;;-2.34;100.00;98524.91;1739871;81;21062;-76
2022/11/18 13:41:03;;;;;;;27.62;13.85;;;;;;;-2.37;100.00;98538.33;1739595;81;21050;-78
2022/11/18 13:43:26;;;;;;;27.65;13.90;;;;;;;-2.39;100.00;98554.44;1735277;81;21525;-75
2022/11/18 13:45:52;;;;;;;24.82;13.30;;;;;;;-2.39;100.00;98563.84;1748787;81;21073;-76
2022/11/18 13:48:19;;;;;;;22.60;12.68;;;;;;;-2.37;100.00;98570.59;1754610;81;21543;-73
2022/11/18 13:50:52;;;;;;;26.90;12.93;;;;;;;-2.35;100.00;98567.64;1743428;81;21086;-73
2022/11/18 13:53:37;;;;;;;33.95;14.18;;;;;;;-2.36;100.00;98561.98;1741941;80;21449;-74
2022/11/18 13:56:19;;;;;;;27.50;12.73;;;;;;;-2.36;100.00;98560.11;1740480;80;21032;-76
2022/11/18 13:58:57;;;;;;;40.65;14.15;;;;;;;-2.36;100.00;98554.73;1730878;81;21706;-76
2022/11/18 14:01:30;;;;;;;32.75;14.05;;;;;;;-2.39;100.00;98552.56;1721489;81;20976;-76
2022/11/18 14:04:03;;;;;;;24.35;12.47;;;;;;;-2.40;100.00;98554.97;1749339;80;21038;-77
2022/11/18 14:06:37;;;;;;;25.37;14.43;;;;;;;-2.39;100.00;98553.91;1746483;81;20977;-79
2022/11/18 14:09:25;;;;;;;32.58;15.63;;;;;;;-2.38;100.00;98552.84;1738671;80;21491;-79
2022/11/18 14:12:15;;;;;;;48.38;16.62;;;;;;;-2.37;100.00;98557.68;1750897;80;21160;-76
2022/11/18 14:14:43;;;;;;;33.13;14.20;;;;;;;-2.37;100.00;98560.37;1758668;80;20971;-75
2022/11/18 14:17:20;;;;;;;29.18;15.53;;;;;;;-2.36;100.00;98567.37;1755274;80;20929;-74
2022/11/18 14:19:49;;;;;;;29.87;15.18;;;;;;;-2.38;100.00;98555.53;1766111;80;20999;-76
2022/11/18 14:22:28;;;;;;;34.67;16.00;;;;;;;-2.37;100.00;98557.14;1766980;80;20944;-76
2022/11/18 14:25:04;;;;;;;30.15;15.53;;;;;;;-2.34;100.00;98556.63;1722803;82;21090;-76
2022/11/18 14:27:52;;;;;;;27.65;15.63;;;;;;;-2.32;100.00;98563.63;1726775;81;21482;-76
2022/11/18 14:30:37;;;;;;;27.87;14.75;;;;;;;-2.35;100.00;98568.98;1729289;82;20943;-73
2022/11/18 14:33:23;;;;;;;30.52;15.98;;;;;;;-2.38;100.00;98580.25;1744872;80;20889;-77
2022/11/18 14:35:56;;;;;;;34.98;17.42;;;;;;;-2.38;100.00;98584.28;1762605;80;20928;-77
2022/11/18 14:38:44;;;;;;;43.83;17.13;;;;;;;-2.37;100.00;98572.46;1759452;80;21141;-77
2022/11/18 14:41:13;;;;;;;34.30;17.15;;;;;;;-2.35;100.00;98576.52;1770672;80;21619;-78
2022/11/18 14:43:41;;;;;;;41.37;17.65;;;;;;;-2.33;100.00;98560.13;1774455;79;20880;-81
2022/11/18 14:46:17;;;;;;;45.10;18.27;;;;;;;-2.31;100.00;98557.97;1690251;83;20932;-77
2022/11/18 14:48:44;;;;;;;44.77;17.85;;;;;;;-2.30;100.00;98542.66;1676619;83;20935;-78
2022/11/18 14:51:15;;;;;;;222.73;39.75;;;;;;;-2.29;100.00;98544.27;1715700;82;21107;-78
2022/11/18 14:53:42;;;;;;;42.43;18.35;;;;;;;-2.30;100.00;98543.47;1688307;83;20994;-77
2022/11/18 14:56:28;;;;;;;65.57;20.23;;;;;;;-2.29;100.00;98526.80;1698601;83;21486;-76
2022/11/18 14:58:55;;;;;;;44.80;17.87;;;;;;;-2.30;100.00;98521.95;1724053;81;20904;-77
2022/11/18 15:01:24;;;;;;;31.93;16.10;;;;;;;-2.30;100.00;98507.17;1700987;83;21451;-77
2022/11/18 15:03:51;;;;;;;39.48;16.70;;;;;;;-2.31;100.00;98507.45;1711493;83;21110;-76
2022/11/18 15:06:19;;;;;;;29.80;15.72;;;;;;;-2.31;100.00;98499.39;1689025;83;20906;-78
2022/11/18 15:08:50;;;;;;;31.23;15.88;;;;;;;-2.31;100.00;98505.55;1678668;84;21579;-76
2022/11/18 15:11:18;;;;;;;32.05;18.12;;;;;;;-2.30;100.00;98503.14;1690377;84;20961;-77
2022/11/18 15:13:45;;;;;;;35.80;16.70;;;;;;;-2.27;100.00;98514.72;1671406;84;21081;-77
2022/11/18 15:16:19;;;;;;;29.45;16.93;;;;;;;-2.21;100.00;98516.91;1679499;84;21573;-76
2022/11/18 15:18:49;;;;;;;30.45;15.68;;;;;;;-2.19;100.00;98507.52;1687122;82;21004;-77
2022/11/18 15:21:17;;;;;;;31.27;16.37;;;;;;;-2.18;100.00;98509.68;1717943;82;20954;-77
2022/11/18 15:23:44;;;;;;;31.97;16.17;;;;;;;-2.16;100.00;98508.35;1709895;83;21056;-78
2022/11/18 15:26:26;;;;;;;33.67;19.15;;;;;;;-2.18;100.00;98503.77;1704786;83;20997;-77
2022/11/18 15:28:55;;;;;;;31.57;16.00;;;;;;;-2.20;100.00;98514.50;1738685;81;21233;-75
2022/11/18 15:31:23;;;;;;;28.83;14.98;;;;;;;-2.19;100.00;98521.50;1756181;79;20963;-77
2022/11/18 15:33:50;;;;;;;29.87;16.10;;;;;;;-2.18;100.00;98527.16;1766779;79;21501;-77
2022/11/18 15:36:22;;;;;;;27.52;14.83;;;;;;;-2.19;100.00;98531.72;1765130;80;20876;-77
2022/11/18 15:38:50;;;;;;;28.52;16.07;;;;;;;-2.18;100.00;98530.66;1758390;80;21011;-77
2022/11/18 15:41:24;;;;;;;30.10;16.80;;;;;;;-2.17;100.00;98526.09;1724114;81;21123;-77
2022/11/18 15:43:48;;;;;;;;;;;;;;;-2.17;100.00;98534.16;1749181;81;20991;-78
2022/11/18 15:46:18;;;;;;;26.90;14.50;;;;;;;-2.18;100.00;98536.03;1736556;82;20147;-72
2022/11/18 15:48:44;;;;;;;27.95;14.85;;;;;;;-2.19;100.00;98534.95;1737266;82;21007;-70
2022/11/18 15:51:12;;;;;;;31.80;16.40;;;;;;;-2.20;100.00;98536.02;1742540;81;20951;-73
2022/11/18 15:53:39;;;;;;;34.27;16.62;;;;;;;-2.17;100.00;98529.59;1723828;81;21251;-75
2022/11/18 15:56:20;;;;;;;35.13;19.30;;;;;;;-2.16;100.00;98527.17;1740687;82;21470;-75
2022/11/18 15:58:56;;;;;;;36.42;16.42;;;;;;;-2.13;100.00;98518.59;1738274;79;20958;-74
2022/11/18 16:01:25;;;;;;;36.25;14.87;;;;;;;-2.13;100.00;98523.16;1773408;80;21463;-72
2022/11/18 16:03:52;;;;;;;32.65;17.67;;;;;;;-2.15;100.00;98527.45;1763288;80;20978;-73
2022/11/18 16:06:21;;;;;;;32.55;17.02;;;;;;;-2.16;100.00;98529.86;1750202;80;20950;-73
2022/11/18 16:08:49;;;;;;;33.53;15.25;;;;;;;-2.15;100.00;98531.48;1740648;81;20915;-74
2022/11/18 16:14:08;;;;;;;35.55;18.12;;;;;;;-2.14;100.00;98531.76;1736555;81;21486;-73
2022/11/18 16:16:37;;;;;;;;;;;;;;;-2.11;100.00;98531.78;1739655;81;21428;-74
2022/11/18 16:19:07;;;;;;;35.38;18.85;;;;;;;-2.13;100.00;98536.61;1746926;81;20119;-74
2022/11/18 16:21:39;;;;;;;35.25;18.07;;;;;;;-2.16;100.00;98539.27;1737965;82;21425;-74
2022/11/18 16:24:08;;;;;;;36.28;17.90;;;;;;;-2.19;100.00;98529.56;1736788;81;21068;-73
2022/11/18 16:26:38;;;;;;;38.98;20.15;;;;;;;-2.20;100.00;98533.33;1740449;81;20906;-75
2022/11/18 16:29:05;;;;;;;44.55;20.00;;;;;;;-2.23;100.00;98531.96;1749723;81;20885;-75
2022/11/18 16:31:39;;;;;;;38.23;19.20;;;;;;;-2.24;100.00;98525.50;1748255;81;21133;-76
2022/11/18 16:34:14;;;;;;;44.13;19.92;;;;;;;-2.23;100.00;98522.55;1720520;80;21617;-75
2022/11/18 16:36:43;;;;;;;43.28;20.37;;;;;;;-2.24;100.00;98523.62;1735790;80;20988;-77
2022/11/18 16:39:18;;;;;;;43.58;20.48;;;;;;;-2.21;100.00;98535.73;1764464;79;21565;-75
2022/11/18 16:41:46;;;;;;;37.30;19.85;;;;;;;-2.20;100.00;98538.70;1711272;82;21011;-78
2022/11/18 16:44:14;;;;;;;38.63;18.77;;;;;;;-2.19;100.00;98540.33;1695717;82;21489;-77
2022/11/18 16:46:48;;;;;;;40.35;20.43;;;;;;;-2.19;100.00;98541.13;1689399;83;20956;-76
2022/11/18 16:49:16;;;;;;;38.48;20.25;;;;;;;-2.20;100.00;98547.58;1677240;83;20968;-77
2022/11/18 16:51:45;;;;;;;44.03;21.07;;;;;;;-2.20;100.00;98556.18;1723448;81;21501;-72
2022/11/18 16:54:26;;;;;;;50.23;21.70;;;;;;;-2.22;100.00;98552.41;1735748;81;21486;-70
2022/11/18 16:56:57;;;;;;;39.67;20.27;;;;;;;-2.23;100.00;98549.44;1746181;81;26754;-72
2022/11/18 16:59:29;;;;;;;38.38;19.60;;;;;;;-2.24;100.00;98547.81;1747053;81;20890;-73
2022/11/18 17:01:57;;;;;;;49.23;20.60;;;;;;;-2.26;100.00;98547.27;1744934;81;20958;-73
2022/11/18 17:04:29;;;;;;;47.05;22.32;;;;;;;-2.26;100.00;98546.45;1748387;81;21464;-73
2022/11/18 17:06:58;;;;;;;48.40;23.25;;;;;;;-2.27;100.00;98539.45;1755823;79;20952;-70
2022/11/18 17:09:25;;;;;;;51.63;21.95;;;;;;;-2.24;100.00;98536.25;1755562;79;21260;-73
2022/11/18 17:11:53;;;;;;;48.15;22.95;;;;;;;-2.23;100.00;98532.49;1740168;80;20936;-70
2022/11/18 17:14:21;;;;;;;48.52;22.00;;;;;;;-2.24;100.00;98534.91;1756233;80;21034;-69
2022/11/18 17:16:49;;;;;;;47.38;21.45;;;;;;;-2.25;100.00;98538.13;1764509;80;20939;-70
2022/11/18 17:19:18;;;;;;;48.65;22.73;;;;;;;-2.24;100.00;98531.69;1750941;81;21491;-71
2022/11/18 17:21:47;;;;;;;51.63;23.02;;;;;;;-2.22;100.00;98534.11;1743515;81;21025;-73
2022/11/18 17:24:19;;;;;;;49.40;23.02;;;;;;;-2.20;100.00;98524.72;1704867;82;21046;-71
2022/11/18 17:26:47;;;;;;;51.58;22.07;;;;;;;-2.21;100.00;98521.76;1735348;81;20900;-71
2022/11/18 17:29:14;;;;;;;57.73;20.88;;;;;;;-2.22;100.00;98516.11;1748483;81;21008;-71
2022/11/18 17:31:42;;;;;;;60.52;24.77;;;;;;;-2.23;100.00;98504.27;1730644;81;20911;-70
2022/11/18 17:34:13;;;;;;;61.60;24.63;;;;;;;-2.21;100.00;98502.13;1752875;81;21530;-71
2022/11/18 17:36:44;;;;;;;63.93;25.67;;;;;;;-2.20;100.00;98495.68;1745796;81;20896;-71
2022/11/18 17:39:12;;;;;;;59.13;25.88;;;;;;;-2.21;100.00;98487.34;1749931;81;21092;-72
2022/11/18 17:44:30;;;;;;;61.83;25.17;;;;;;;-2.19;100.00;98495.42;1735945;81;23016;-71
2022/11/18 17:47:01;;;;;;;58.70;24.72;;;;;;;-2.18;100.00;98478.76;1747257;80;21036;-72
2022/11/18 17:49:31;;;;;;;63.25;25.72;;;;;;;-2.19;100.00;98479.83;1736505;81;21030;-70
2022/11/18 17:52:02;;;;;;;60.92;27.10;;;;;;;-2.21;100.00;98477.93;1750064;80;21517;-71
2022/11/18 17:54:35;;;;;;;64.62;26.35;;;;;;;-2.21;100.00;98498.09;1762910;80;21478;-71
2022/11/18 17:57:07;;;;;;;58.28;24.70;;;;;;;-2.22;100.00;98509.92;1774338;80;20889;-71
2022/11/18 17:59:38;;;;;;;56.17;23.83;;;;;;;-2.23;100.00;98510.98;1752378;81;21229;-71
2022/11/18 18:02:17;;;;;;;57.58;22.02;;;;;;;-2.23;100.00;98517.17;1753616;80;20923;-71
2022/11/18 18:04:42;;;;;;;55.03;23.52;;;;;;;-2.21;100.00;98511.00;1748916;80;21578;-71
2022/11/18 18:07:13;;;;;;;60.48;23.75;;;;;;;-2.21;100.00;98498.91;1739620;81;20955;-70
2022/11/18 18:09:45;;;;;;;59.30;22.58;;;;;;;-2.20;100.00;98492.99;1727245;82;20904;-71
2022/11/18 18:15:12;;;;;;;70.55;24.25;;;;;;;-2.20;100.00;98497.03;1739342;81;20999;-70
2022/11/18 18:17:40;;;;;;;60.88;23.70;;;;;;;-2.20;100.00;98498.38;1723961;81;21083;-70
2022/11/18 18:20:10;;;;;;;68.50;25.30;;;;;;;-2.19;100.00;98502.68;1723527;81;21414;-71
2022/11/18 18:22:39;;;;;;;66.12;21.77;;;;;;;-2.18;100.00;98502.42;1721829;82;20928;-70
2022/11/18 18:25:07;;;;;;;58.98;21.50;;;;;;;-2.15;100.00;98511.85;1722954;82;21175;-71
2022/11/18 18:27:40;;;;;;;;;;;;;;;-2.15;100.00;98514.00;1742417;81;21761;-71
2022/11/18 18:30:13;;;;;;;53.60;19.65;;;;;;;-2.15;100.00;98515.35;1735481;81;20135;-71
2022/11/18 18:32:43;;;;;;;54.77;20.30;;;;;;;-2.17;100.00;98509.42;1709309;82;20975;-69
2022/11/18 18:35:15;;;;;;;56.55;21.97;;;;;;;-2.18;100.00;98515.87;1724245;82;21002;-69
2022/11/18 18:37:43;;;;;;;53.68;20.00;;;;;;;-2.14;100.00;98514.81;1730753;82;21197;-71
2022/11/18 18:40:13;;;;;;;46.75;19.98;;;;;;;-2.13;100.00;98504.34;1718245;82;21006;-70
2022/11/18 18:42:45;;;;;;;46.02;19.57;;;;;;;-2.14;100.00;98506.75;1732007;82;20951;-69
2022/11/18 18:48:11;;;;;;;48.40;19.45;;;;;;;-2.13;100.00;98487.67;1712524;81;20904;-70
2022/11/18 18:50:39;;;;;;;48.38;21.52;;;;;;;-2.10;100.00;98494.41;1745842;80;20935;-69
2022/11/18 18:53:06;;;;;;;41.68;19.52;;;;;;;-2.10;100.00;98488.50;1750409;80;21015;-70
2022/11/18 18:55:38;;;;;;;43.70;20.08;;;;;;;-2.09;100.00;98487.96;1743229;81;21022;-71
2022/11/18 18:58:11;;;;;;;54.08;19.02;;;;;;;-2.07;100.00;98488.52;1692858;83;20924;-70
2022/11/18 19:00:40;;;;;;;45.33;19.92;;;;;;;-2.08;100.00;98489.05;1701462;82;20956;-70
2022/11/18 19:03:11;;;;;;;51.90;20.90;;;;;;;-2.08;100.00;98493.62;1745106;81;21115;-70
2022/11/18 19:05:44;;;;;;;50.15;21.17;;;;;;;-2.08;100.00;98487.70;1748665;81;21102;-69
2022/11/18 19:08:19;;;;;;;;;;;;;;;-2.08;100.00;98493.08;1718410;82;20952;-71
2022/11/18 19:10:45;;;;;;;54.27;20.57;;;;;;;-2.07;100.00;98489.33;1709581;83;20143;-71
2022/11/18 19:13:23;;;;;;;46.75;21.02;;;;;;;-2.05;100.00;98485.84;1704918;83;20965;-72
2022/11/18 19:15:52;;;;;;;46.70;20.35;;;;;;;-2.04;100.00;98483.42;1697807;83;21156;-70
2022/11/18 19:18:25;;;;;;;52.48;22.02;;;;;;;-2.02;100.00;98479.94;1692494;83;21025;-70
2022/11/18 19:20:57;;;;;;;55.28;22.60;;;;;;;-2.02;100.00;98483.98;1695187;83;20949;-70
2022/11/18 19:23:24;;;;;;;51.83;21.40;;;;;;;-2.01;100.00;98476.19;1754174;80;20977;-70
2022/11/18 19:26:00;;;;;;;54.48;21.77;;;;;;;-2.01;100.00;98480.22;1733660;80;21059;-71
2022/11/18 19:28:31;;;;;;;51.45;21.77;;;;;;;-2.02;100.00;98470.53;1758517;80;21103;-71
2022/11/18 19:31:03;;;;;;;53.05;22.70;;;;;;;-2.02;100.00;98474.56;1757922;80;21031;-72
2022/11/18 19:33:33;;;;;;;50.30;21.73;;;;;;;-2.02;100.00;98474.56;1699254;82;21036;-71
2022/11/18 19:36:05;;;;;;;53.70;21.48;;;;;;;-1.99;100.00;98475.92;1761309;80;26515;-70
2022/11/18 19:38:36;;;;;;;55.63;23.50;;;;;;;-1.96;100.00;98473.25;1759223;81;21011;-71
2022/11/18 19:41:14;;;;;;;48.20;21.70;;;;;;;-1.95;100.00;98470.83;1756519;80;21727;-72
2022/11/18 19:43:42;;;;;;;48.83;20.40;;;;;;;-1.95;100.00;98465.45;1763025;80;21046;-71
2022/11/18 19:46:11;;;;;;;43.05;20.10;;;;;;;-1.95;100.00;98466.80;1757645;80;20841;-71
2022/11/18 19:48:47;;;;;;;47.48;21.37;;;;;;;-1.93;100.00;98470.04;1731940;81;20951;-70
2022/11/18 19:51:14;;;;;;;44.53;20.47;;;;;;;-1.94;100.00;98459.00;1754601;81;20879;-70
2022/11/18 19:53:42;;;;;;;49.50;19.90;;;;;;;-1.94;100.00;98454.44;1751398;81;21110;-70
2022/11/18 19:56:19;;;;;;;46.95;20.10;;;;;;;-1.94;100.00;98445.55;1747367;81;20883;-71